sensor_id;sensor_type;location;lat;lon;timestamp;P1;durP1;ratioP1;P2;durP2;ratioP2
52158;SDS011;38145;53.182;6.284;2022-08-01T00:01:29;7.82;;;6.45;;
52158;SDS011;38145;53.182;6.284;2022-08-01T00:03:55;10.25;;;7.32;;
52158;SDS011;38145;53.182;6.284;2022-08-01T00:06:22;7.13;;;6.32;;
52158;SDS011;38145;53.182;6.284;2022-08-01T00:08:48;9.15;;;6.07;;
52158;SDS011;38145;53.182;6.284;2022-08-01T00:11:14;8.90;;;5.72;;
52158;SDS011;38145;53.182;6.284;2022-08-01T00:13:41;6.50;;;5.68;;
52158;SDS011;38145;53.182;6.284;2022-08-01T00:16:07;7.95;;;5.43;;
52158;SDS011;38145;53.182;6.284;2022-08-01T00:18:34;6.63;;;4.88;;
52158;SDS011;38145;53.182;6.284;2022-08-01T00:21:01;6.57;;;4.97;;
52158;SDS011;38145;53.182;6.284;2022-08-01T00:23:28;5.07;;;4.60;;
52158;SDS011;38145;53.182;6.284;2022-08-01T00:25:55;5.43;;;4.93;;
52158;SDS011;38145;53.182;6.284;2022-08-01T00:28:21;7.60;;;5.72;;
52158;SDS011;38145;53.182;6.284;2022-08-01T00:30:47;7.15;;;5.15;;
52158;SDS011;38145;53.182;6.284;2022-08-01T00:33:14;7.00;;;5.95;;
52158;SDS011;38145;53.182;6.284;2022-08-01T00:35:40;6.57;;;5.78;;
52158;SDS011;38145;53.182;6.284;2022-08-01T00:38:07;7.03;;;6.28;;
52158;SDS011;38145;53.182;6.284;2022-08-01T00:40:33;9.30;;;5.82;;
52158;SDS011;38145;53.182;6.284;2022-08-01T00:42:59;6.47;;;5.18;;
52158;SDS011;38145;53.182;6.284;2022-08-01T00:45:26;7.40;;;4.70;;
52158;SDS011;38145;53.182;6.284;2022-08-01T00:47:52;5.38;;;4.88;;
52158;SDS011;38145;53.182;6.284;2022-08-01T00:50:18;6.43;;;5.25;;
52158;SDS011;38145;53.182;6.284;2022-08-01T00:52:45;6.53;;;4.80;;
52158;SDS011;38145;53.182;6.284;2022-08-01T00:55:12;4.78;;;4.32;;
52158;SDS011;38145;53.182;6.284;2022-08-01T00:57:39;6.82;;;5.18;;
52158;SDS011;38145;53.182;6.284;2022-08-01T01:00:06;7.20;;;4.78;;
52158;SDS011;38145;53.182;6.284;2022-08-01T01:02:33;7.15;;;4.25;;
52158;SDS011;38145;53.182;6.284;2022-08-01T01:05:02;8.68;;;4.47;;
52158;SDS011;38145;53.182;6.284;2022-08-01T01:07:32;7.57;;;4.55;;
52158;SDS011;38145;53.182;6.284;2022-08-01T01:10:11;9.02;;;4.45;;
52158;SDS011;38145;53.182;6.284;2022-08-01T01:12:54;4.47;;;4.07;;
52158;SDS011;38145;53.182;6.284;2022-08-01T01:15:43;5.25;;;4.35;;
52158;SDS011;38145;53.182;6.284;2022-08-01T01:18:33;9.93;;;3.97;;
52158;SDS011;38145;53.182;6.284;2022-08-01T01:21:13;4.90;;;2.45;;
52158;SDS011;38145;53.182;6.284;2022-08-01T01:26:37;4.90;;;1.73;;
52158;SDS011;38145;53.182;6.284;2022-08-01T01:31:53;4.63;;;2.35;;
52158;SDS011;38145;53.182;6.284;2022-08-01T01:34:22;6.00;;;2.75;;
52158;SDS011;38145;53.182;6.284;2022-08-01T01:36:52;4.90;;;2.00;;
52158;SDS011;38145;53.182;6.284;2022-08-01T01:39:21;2.80;;;1.90;;
52158;SDS011;38145;53.182;6.284;2022-08-01T01:41:53;3.30;;;2.25;;
52158;SDS011;38145;53.182;6.284;2022-08-01T01:44:21;5.90;;;2.28;;
52158;SDS011;38145;53.182;6.284;2022-08-01T01:46:48;6.75;;;2.45;;
52158;SDS011;38145;53.182;6.284;2022-08-01T01:49:18;3.35;;;2.30;;
52158;SDS011;38145;53.182;6.284;2022-08-01T01:51:48;4.70;;;2.25;;
52158;SDS011;38145;53.182;6.284;2022-08-01T01:54:18;5.85;;;2.70;;
52158;SDS011;38145;53.182;6.284;2022-08-01T01:56:47;4.70;;;2.75;;
52158;SDS011;38145;53.182;6.284;2022-08-01T01:59:18;10.02;;;3.83;;
52158;SDS011;38145;53.182;6.284;2022-08-01T02:01:47;5.22;;;2.80;;
52158;SDS011;38145;53.182;6.284;2022-08-01T02:04:16;5.63;;;2.72;;
52158;SDS011;38145;53.182;6.284;2022-08-01T02:06:45;7.80;;;3.43;;
52158;SDS011;38145;53.182;6.284;2022-08-01T02:09:15;8.75;;;3.03;;
52158;SDS011;38145;53.182;6.284;2022-08-01T02:11:45;8.35;;;3.25;;
52158;SDS011;38145;53.182;6.284;2022-08-01T02:14:14;7.97;;;3.65;;
52158;SDS011;38145;53.182;6.284;2022-08-01T02:16:42;8.13;;;3.85;;
52158;SDS011;38145;53.182;6.284;2022-08-01T02:19:12;8.32;;;3.35;;
52158;SDS011;38145;53.182;6.284;2022-08-01T02:21:45;8.88;;;3.60;;
52158;SDS011;38145;53.182;6.284;2022-08-01T02:24:20;8.32;;;3.42;;
52158;SDS011;38145;53.182;6.284;2022-08-01T02:27:09;9.52;;;3.55;;
52158;SDS011;38145;53.182;6.284;2022-08-01T02:29:50;12.82;;;4.25;;
52158;SDS011;38145;53.182;6.284;2022-08-01T02:32:26;16.20;;;4.00;;
52158;SDS011;38145;53.182;6.284;2022-08-01T02:35:00;11.02;;;3.78;;
52158;SDS011;38145;53.182;6.284;2022-08-01T02:37:30;11.90;;;4.18;;
52158;SDS011;38145;53.182;6.284;2022-08-01T02:39:59;13.63;;;4.43;;
52158;SDS011;38145;53.182;6.284;2022-08-01T02:42:26;8.93;;;3.90;;
52158;SDS011;38145;53.182;6.284;2022-08-01T02:44:55;13.32;;;4.22;;
52158;SDS011;38145;53.182;6.284;2022-08-01T02:47:23;10.57;;;3.88;;
52158;SDS011;38145;53.182;6.284;2022-08-01T02:49:52;9.93;;;4.28;;
52158;SDS011;38145;53.182;6.284;2022-08-01T02:52:21;12.15;;;5.07;;
52158;SDS011;38145;53.182;6.284;2022-08-01T02:54:51;10.60;;;4.90;;
52158;SDS011;38145;53.182;6.284;2022-08-01T02:57:20;13.43;;;5.28;;
52158;SDS011;38145;53.182;6.284;2022-08-01T02:59:47;11.43;;;5.35;;
52158;SDS011;38145;53.182;6.284;2022-08-01T03:02:14;12.80;;;5.60;;
52158;SDS011;38145;53.182;6.284;2022-08-01T03:04:42;11.73;;;5.65;;
52158;SDS011;38145;53.182;6.284;2022-08-01T03:07:10;11.20;;;5.13;;
52158;SDS011;38145;53.182;6.284;2022-08-01T03:09:40;14.98;;;5.50;;
52158;SDS011;38145;53.182;6.284;2022-08-01T03:12:11;17.52;;;6.50;;
52158;SDS011;38145;53.182;6.284;2022-08-01T03:14:42;17.08;;;6.05;;
52158;SDS011;38145;53.182;6.284;2022-08-01T03:17:10;19.65;;;6.25;;
52158;SDS011;38145;53.182;6.284;2022-08-01T03:19:36;19.90;;;6.07;;
52158;SDS011;38145;53.182;6.284;2022-08-01T03:22:06;16.60;;;6.60;;
52158;SDS011;38145;53.182;6.284;2022-08-01T03:24:35;14.82;;;5.22;;
52158;SDS011;38145;53.182;6.284;2022-08-01T03:27:04;16.55;;;6.30;;
52158;SDS011;38145;53.182;6.284;2022-08-01T03:29:34;16.20;;;6.38;;
52158;SDS011;38145;53.182;6.284;2022-08-01T03:32:01;16.83;;;6.07;;
52158;SDS011;38145;53.182;6.284;2022-08-01T03:34:28;15.57;;;5.13;;
52158;SDS011;38145;53.182;6.284;2022-08-01T03:36:56;13.02;;;5.05;;
52158;SDS011;38145;53.182;6.284;2022-08-01T03:39:44;14.52;;;5.57;;
52158;SDS011;38145;53.182;6.284;2022-08-01T03:42:17;19.15;;;5.10;;
52158;SDS011;38145;53.182;6.284;2022-08-01T03:44:47;12.38;;;4.85;;
52158;SDS011;38145;53.182;6.284;2022-08-01T03:47:21;16.75;;;5.57;;
52158;SDS011;38145;53.182;6.284;2022-08-01T03:49:51;15.82;;;5.60;;
52158;SDS011;38145;53.182;6.284;2022-08-01T03:52:19;14.48;;;5.45;;
52158;SDS011;38145;53.182;6.284;2022-08-01T03:54:47;17.55;;;5.03;;
52158;SDS011;38145;53.182;6.284;2022-08-01T03:57:16;21.08;;;6.05;;
52158;SDS011;38145;53.182;6.284;2022-08-01T03:59:44;14.10;;;4.10;;
52158;SDS011;38145;53.182;6.284;2022-08-01T04:02:12;16.10;;;4.43;;
52158;SDS011;38145;53.182;6.284;2022-08-01T04:04:40;20.60;;;4.90;;
52158;SDS011;38145;53.182;6.284;2022-08-01T04:07:20;14.10;;;4.00;;
52158;SDS011;38145;53.182;6.284;2022-08-01T04:09:48;18.65;;;4.40;;
52158;SDS011;38145;53.182;6.284;2022-08-01T04:12:15;14.95;;;4.28;;
52158;SDS011;38145;53.182;6.284;2022-08-01T04:14:41;18.10;;;4.68;;
52158;SDS011;38145;53.182;6.284;2022-08-01T04:17:08;17.30;;;4.75;;
52158;SDS011;38145;53.182;6.284;2022-08-01T04:19:34;20.05;;;4.35;;
52158;SDS011;38145;53.182;6.284;2022-08-01T04:22:01;16.40;;;4.30;;
52158;SDS011;38145;53.182;6.284;2022-08-01T04:24:28;16.45;;;4.70;;
52158;SDS011;38145;53.182;6.284;2022-08-01T04:26:58;21.95;;;5.25;;
52158;SDS011;38145;53.182;6.284;2022-08-01T04:29:26;17.45;;;4.45;;
52158;SDS011;38145;53.182;6.284;2022-08-01T04:31:55;18.63;;;4.60;;
52158;SDS011;38145;53.182;6.284;2022-08-01T04:34:26;17.00;;;4.07;;
52158;SDS011;38145;53.182;6.284;2022-08-01T04:36:56;17.83;;;4.00;;
52158;SDS011;38145;53.182;6.284;2022-08-01T04:39:23;15.40;;;5.13;;
52158;SDS011;38145;53.182;6.284;2022-08-01T04:41:53;18.63;;;6.30;;
52158;SDS011;38145;53.182;6.284;2022-08-01T04:44:23;16.88;;;4.45;;
52158;SDS011;38145;53.182;6.284;2022-08-01T04:46:52;20.20;;;4.50;;
52158;SDS011;38145;53.182;6.284;2022-08-01T04:49:21;19.40;;;4.30;;
52158;SDS011;38145;53.182;6.284;2022-08-01T04:51:55;16.77;;;4.53;;
52158;SDS011;38145;53.182;6.284;2022-08-01T04:54:24;20.88;;;5.18;;
52158;SDS011;38145;53.182;6.284;2022-08-01T04:56:51;20.70;;;5.05;;
52158;SDS011;38145;53.182;6.284;2022-08-01T04:59:19;18.70;;;4.35;;
52158;SDS011;38145;53.182;6.284;2022-08-01T05:02:04;15.40;;;4.53;;
52158;SDS011;38145;53.182;6.284;2022-08-01T05:04:32;16.13;;;4.05;;
52158;SDS011;38145;53.182;6.284;2022-08-01T05:06:59;15.90;;;3.85;;
52158;SDS011;38145;53.182;6.284;2022-08-01T05:09:26;17.20;;;3.22;;
52158;SDS011;38145;53.182;6.284;2022-08-01T05:11:53;22.20;;;4.15;;
52158;SDS011;38145;53.182;6.284;2022-08-01T05:14:25;12.35;;;3.45;;
52158;SDS011;38145;53.182;6.284;2022-08-01T05:16:52;17.85;;;4.22;;
52158;SDS011;38145;53.182;6.284;2022-08-01T05:19:18;17.42;;;3.78;;
52158;SDS011;38145;53.182;6.284;2022-08-01T05:21:46;16.75;;;4.55;;
52158;SDS011;38145;53.182;6.284;2022-08-01T05:24:13;16.85;;;3.95;;
52158;SDS011;38145;53.182;6.284;2022-08-01T05:26:39;20.27;;;4.47;;
52158;SDS011;38145;53.182;6.284;2022-08-01T05:29:07;21.02;;;4.05;;
52158;SDS011;38145;53.182;6.284;2022-08-01T05:31:33;15.55;;;3.80;;
52158;SDS011;38145;53.182;6.284;2022-08-01T05:34:01;16.10;;;3.75;;
52158;SDS011;38145;53.182;6.284;2022-08-01T05:36:28;22.95;;;4.45;;
52158;SDS011;38145;53.182;6.284;2022-08-01T05:38:55;18.60;;;4.20;;
52158;SDS011;38145;53.182;6.284;2022-08-01T05:41:21;17.80;;;3.50;;
52158;SDS011;38145;53.182;6.284;2022-08-01T05:43:48;16.65;;;4.35;;
52158;SDS011;38145;53.182;6.284;2022-08-01T05:46:14;21.02;;;4.05;;
52158;SDS011;38145;53.182;6.284;2022-08-01T05:48:40;19.80;;;3.92;;
52158;SDS011;38145;53.182;6.284;2022-08-01T05:51:07;12.77;;;4.00;;
52158;SDS011;38145;53.182;6.284;2022-08-01T05:53:34;22.42;;;4.35;;
52158;SDS011;38145;53.182;6.284;2022-08-01T05:56:01;17.38;;;4.38;;
52158;SDS011;38145;53.182;6.284;2022-08-01T05:58:27;17.58;;;3.70;;
52158;SDS011;38145;53.182;6.284;2022-08-01T06:00:55;14.23;;;4.22;;
52158;SDS011;38145;53.182;6.284;2022-08-01T06:03:21;26.40;;;4.38;;
52158;SDS011;38145;53.182;6.284;2022-08-01T06:05:49;19.73;;;4.82;;
52158;SDS011;38145;53.182;6.284;2022-08-01T06:08:17;18.77;;;3.90;;
52158;SDS011;38145;53.182;6.284;2022-08-01T06:10:44;17.13;;;3.88;;
52158;SDS011;38145;53.182;6.284;2022-08-01T06:13:10;20.02;;;4.20;;
52158;SDS011;38145;53.182;6.284;2022-08-01T06:15:37;14.85;;;3.97;;
52158;SDS011;38145;53.182;6.284;2022-08-01T06:18:03;17.20;;;4.13;;
52158;SDS011;38145;53.182;6.284;2022-08-01T06:20:30;17.02;;;4.47;;
52158;SDS011;38145;53.182;6.284;2022-08-01T06:22:57;20.63;;;4.28;;
52158;SDS011;38145;53.182;6.284;2022-08-01T06:25:23;17.35;;;4.60;;
52158;SDS011;38145;53.182;6.284;2022-08-01T06:27:50;16.30;;;4.13;;
52158;SDS011;38145;53.182;6.284;2022-08-01T06:30:17;14.10;;;4.18;;
52158;SDS011;38145;53.182;6.284;2022-08-01T06:32:44;13.73;;;5.40;;
52158;SDS011;38145;53.182;6.284;2022-08-01T06:35:10;15.10;;;4.07;;
52158;SDS011;38145;53.182;6.284;2022-08-01T06:37:37;14.50;;;4.78;;
52158;SDS011;38145;53.182;6.284;2022-08-01T06:40:05;21.65;;;5.32;;
52158;SDS011;38145;53.182;6.284;2022-08-01T06:42:34;11.65;;;3.42;;
52158;SDS011;38145;53.182;6.284;2022-08-01T06:45:02;13.95;;;4.20;;
52158;SDS011;38145;53.182;6.284;2022-08-01T06:47:29;16.85;;;3.10;;
52158;SDS011;38145;53.182;6.284;2022-08-01T06:49:56;12.60;;;3.80;;
52158;SDS011;38145;53.182;6.284;2022-08-01T06:52:22;11.63;;;2.80;;
52158;SDS011;38145;53.182;6.284;2022-08-01T06:54:50;12.95;;;4.35;;
52158;SDS011;38145;53.182;6.284;2022-08-01T06:57:16;15.40;;;3.40;;
52158;SDS011;38145;53.182;6.284;2022-08-01T06:59:43;14.65;;;3.40;;
52158;SDS011;38145;53.182;6.284;2022-08-01T07:02:09;16.17;;;3.22;;
52158;SDS011;38145;53.182;6.284;2022-08-01T07:04:36;11.90;;;2.78;;
52158;SDS011;38145;53.182;6.284;2022-08-01T07:07:02;12.95;;;3.10;;
52158;SDS011;38145;53.182;6.284;2022-08-01T07:09:29;15.60;;;3.05;;
52158;SDS011;38145;53.182;6.284;2022-08-01T07:11:55;11.93;;;3.10;;
52158;SDS011;38145;53.182;6.284;2022-08-01T07:14:22;12.32;;;2.45;;
52158;SDS011;38145;53.182;6.284;2022-08-01T07:16:49;16.17;;;3.58;;
52158;SDS011;38145;53.182;6.284;2022-08-01T07:19:16;10.80;;;3.67;;
52158;SDS011;38145;53.182;6.284;2022-08-01T07:21:43;14.60;;;2.70;;
52158;SDS011;38145;53.182;6.284;2022-08-01T07:24:11;11.25;;;3.15;;
52158;SDS011;38145;53.182;6.284;2022-08-01T07:26:39;17.92;;;3.17;;
52158;SDS011;38145;53.182;6.284;2022-08-01T07:29:07;11.82;;;2.90;;
52158;SDS011;38145;53.182;6.284;2022-08-01T07:31:33;15.73;;;2.90;;
52158;SDS011;38145;53.182;6.284;2022-08-01T07:34:00;10.65;;;2.95;;
52158;SDS011;38145;53.182;6.284;2022-08-01T07:36:26;8.55;;;2.50;;
52158;SDS011;38145;53.182;6.284;2022-08-01T07:38:53;11.93;;;2.78;;
52158;SDS011;38145;53.182;6.284;2022-08-01T07:41:20;13.38;;;2.50;;
52158;SDS011;38145;53.182;6.284;2022-08-01T07:43:46;11.50;;;2.67;;
52158;SDS011;38145;53.182;6.284;2022-08-01T07:46:14;11.43;;;2.53;;
52158;SDS011;38145;53.182;6.284;2022-08-01T07:48:41;14.43;;;2.30;;
52158;SDS011;38145;53.182;6.284;2022-08-01T07:51:09;12.70;;;2.78;;
52158;SDS011;38145;53.182;6.284;2022-08-01T07:53:35;16.48;;;2.45;;
52158;SDS011;38145;53.182;6.284;2022-08-01T07:56:03;12.07;;;2.23;;
52158;SDS011;38145;53.182;6.284;2022-08-01T07:58:31;10.52;;;2.00;;
52158;SDS011;38145;53.182;6.284;2022-08-01T08:00:58;13.13;;;2.50;;
52158;SDS011;38145;53.182;6.284;2022-08-01T08:03:25;8.48;;;2.25;;
52158;SDS011;38145;53.182;6.284;2022-08-01T08:05:52;11.75;;;2.13;;
52158;SDS011;38145;53.182;6.284;2022-08-01T08:08:18;11.30;;;2.00;;
52158;SDS011;38145;53.182;6.284;2022-08-01T08:10:45;9.70;;;2.03;;
52158;SDS011;38145;53.182;6.284;2022-08-01T08:13:11;9.93;;;2.00;;
52158;SDS011;38145;53.182;6.284;2022-08-01T08:15:37;11.35;;;1.75;;
52158;SDS011;38145;53.182;6.284;2022-08-01T08:18:04;11.40;;;2.20;;
52158;SDS011;38145;53.182;6.284;2022-08-01T08:20:30;13.02;;;2.25;;
52158;SDS011;38145;53.182;6.284;2022-08-01T08:22:56;11.93;;;2.55;;
52158;SDS011;38145;53.182;6.284;2022-08-01T08:25:24;12.20;;;2.05;;
52158;SDS011;38145;53.182;6.284;2022-08-01T08:27:51;5.97;;;1.70;;
52158;SDS011;38145;53.182;6.284;2022-08-01T08:30:17;11.48;;;2.50;;
52158;SDS011;38145;53.182;6.284;2022-08-01T08:32:44;11.82;;;2.42;;
52158;SDS011;38145;53.182;6.284;2022-08-01T08:35:10;9.68;;;1.90;;
52158;SDS011;38145;53.182;6.284;2022-08-01T08:37:37;12.30;;;2.08;;
52158;SDS011;38145;53.182;6.284;2022-08-01T08:40:04;10.27;;;2.35;;
52158;SDS011;38145;53.182;6.284;2022-08-01T08:44:57;12.30;;;2.83;;
52158;SDS011;38145;53.182;6.284;2022-08-01T08:47:24;9.70;;;1.85;;
52158;SDS011;38145;53.182;6.284;2022-08-01T08:49:53;8.48;;;1.50;;
52158;SDS011;38145;53.182;6.284;2022-08-01T08:52:23;9.68;;;1.90;;
52158;SDS011;38145;53.182;6.284;2022-08-01T08:54:50;7.90;;;2.08;;
52158;SDS011;38145;53.182;6.284;2022-08-01T08:57:18;8.95;;;2.25;;
52158;SDS011;38145;53.182;6.284;2022-08-01T08:59:46;10.68;;;2.65;;
52158;SDS011;38145;53.182;6.284;2022-08-01T09:02:12;8.07;;;1.70;;
52158;SDS011;38145;53.182;6.284;2022-08-01T09:04:39;7.80;;;2.10;;
52158;SDS011;38145;53.182;6.284;2022-08-01T09:07:06;9.85;;;2.45;;
52158;SDS011;38145;53.182;6.284;2022-08-01T09:09:34;7.13;;;1.40;;
52158;SDS011;38145;53.182;6.284;2022-08-01T09:12:00;5.85;;;1.67;;
52158;SDS011;38145;53.182;6.284;2022-08-01T09:14:26;10.63;;;2.08;;
52158;SDS011;38145;53.182;6.284;2022-08-01T09:17:00;10.65;;;2.05;;
52158;SDS011;38145;53.182;6.284;2022-08-01T09:19:35;13.88;;;2.13;;
52158;SDS011;38145;53.182;6.284;2022-08-01T09:22:02;6.53;;;2.25;;
52158;SDS011;38145;53.182;6.284;2022-08-01T09:24:31;6.28;;;1.60;;
52158;SDS011;38145;53.182;6.284;2022-08-01T09:26:58;6.95;;;1.60;;
52158;SDS011;38145;53.182;6.284;2022-08-01T09:29:27;8.63;;;2.43;;
52158;SDS011;38145;53.182;6.284;2022-08-01T09:31:55;8.85;;;2.20;;
52158;SDS011;38145;53.182;6.284;2022-08-01T09:34:28;7.93;;;2.30;;
52158;SDS011;38145;53.182;6.284;2022-08-01T09:36:57;5.90;;;2.10;;
52158;SDS011;38145;53.182;6.284;2022-08-01T09:39:27;10.40;;;2.10;;
52158;SDS011;38145;53.182;6.284;2022-08-01T09:41:57;8.23;;;1.95;;
52158;SDS011;38145;53.182;6.284;2022-08-01T09:44:42;6.10;;;1.77;;
52158;SDS011;38145;53.182;6.284;2022-08-01T09:47:10;9.25;;;2.13;;
52158;SDS011;38145;53.182;6.284;2022-08-01T09:49:39;8.07;;;1.67;;
52158;SDS011;38145;53.182;6.284;2022-08-01T09:52:13;6.88;;;1.42;;
52158;SDS011;38145;53.182;6.284;2022-08-01T09:54:43;9.45;;;1.85;;
52158;SDS011;38145;53.182;6.284;2022-08-01T09:57:17;5.40;;;1.15;;
52158;SDS011;38145;53.182;6.284;2022-08-01T09:59:46;8.80;;;1.67;;
52158;SDS011;38145;53.182;6.284;2022-08-01T10:04:57;8.43;;;1.67;;
52158;SDS011;38145;53.182;6.284;2022-08-01T10:07:24;6.85;;;1.55;;
52158;SDS011;38145;53.182;6.284;2022-08-01T10:09:52;6.45;;;1.80;;
52158;SDS011;38145;53.182;6.284;2022-08-01T10:12:19;15.80;;;1.83;;
52158;SDS011;38145;53.182;6.284;2022-08-01T10:14:50;6.90;;;1.70;;
52158;SDS011;38145;53.182;6.284;2022-08-01T10:17:20;5.90;;;1.35;;
52158;SDS011;38145;53.182;6.284;2022-08-01T10:19:49;10.00;;;1.40;;
52158;SDS011;38145;53.182;6.284;2022-08-01T10:22:19;7.82;;;2.08;;
52158;SDS011;38145;53.182;6.284;2022-08-01T10:24:50;7.43;;;1.75;;
52158;SDS011;38145;53.182;6.284;2022-08-01T10:27:20;11.45;;;1.92;;
52158;SDS011;38145;53.182;6.284;2022-08-01T10:32:17;9.30;;;1.80;;
52158;SDS011;38145;53.182;6.284;2022-08-01T10:34:44;8.68;;;2.25;;
52158;SDS011;38145;53.182;6.284;2022-08-01T10:37:11;9.65;;;1.85;;
52158;SDS011;38145;53.182;6.284;2022-08-01T10:39:39;7.75;;;1.52;;
52158;SDS011;38145;53.182;6.284;2022-08-01T10:42:06;9.70;;;2.28;;
52158;SDS011;38145;53.182;6.284;2022-08-01T10:44:36;5.97;;;1.92;;
52158;SDS011;38145;53.182;6.284;2022-08-01T10:47:06;7.10;;;1.60;;
52158;SDS011;38145;53.182;6.284;2022-08-01T10:49:43;7.93;;;1.23;;
52158;SDS011;38145;53.182;6.284;2022-08-01T10:52:16;14.18;;;1.63;;
52158;SDS011;38145;53.182;6.284;2022-08-01T10:54:43;10.55;;;1.80;;
52158;SDS011;38145;53.182;6.284;2022-08-01T10:57:10;6.95;;;1.40;;
52158;SDS011;38145;53.182;6.284;2022-08-01T10:59:47;8.20;;;1.52;;
52158;SDS011;38145;53.182;6.284;2022-08-01T11:02:25;8.02;;;1.23;;
52158;SDS011;38145;53.182;6.284;2022-08-01T11:05:04;10.98;;;1.60;;
52158;SDS011;38145;53.182;6.284;2022-08-01T11:07:48;7.45;;;1.65;;
52158;SDS011;38145;53.182;6.284;2022-08-01T11:10:24;4.88;;;1.00;;
52158;SDS011;38145;53.182;6.284;2022-08-01T11:12:57;4.40;;;1.17;;
52158;SDS011;38145;53.182;6.284;2022-08-01T11:15:26;7.38;;;1.13;;
52158;SDS011;38145;53.182;6.284;2022-08-01T11:17:54;4.28;;;1.35;;
52158;SDS011;38145;53.182;6.284;2022-08-01T11:20:21;4.87;;;1.03;;
52158;SDS011;38145;53.182;6.284;2022-08-01T11:25:27;12.30;;;2.08;;
52158;SDS011;38145;53.182;6.284;2022-08-01T11:30:45;8.38;;;1.23;;
52158;SDS011;38145;53.182;6.284;2022-08-01T11:33:14;6.97;;;1.27;;
52158;SDS011;38145;53.182;6.284;2022-08-01T11:36:16;8.45;;;1.83;;
52158;SDS011;38145;53.182;6.284;2022-08-01T11:41:11;5.68;;;1.20;;
52158;SDS011;38145;53.182;6.284;2022-08-01T11:49:25;7.32;;;2.17;;
52158;SDS011;38145;53.182;6.284;2022-08-01T11:52:01;8.93;;;1.30;;
52158;SDS011;38145;53.182;6.284;2022-08-01T11:54:32;3.90;;;0.90;;
52158;SDS011;38145;53.182;6.284;2022-08-01T11:57:01;7.00;;;1.33;;
52158;SDS011;38145;53.182;6.284;2022-08-01T11:59:34;6.50;;;1.73;;
52158;SDS011;38145;53.182;6.284;2022-08-01T12:02:04;6.28;;;1.70;;
52158;SDS011;38145;53.182;6.284;2022-08-01T12:04:47;6.38;;;1.20;;
52158;SDS011;38145;53.182;6.284;2022-08-01T12:07:15;10.20;;;2.40;;
52158;SDS011;38145;53.182;6.284;2022-08-01T12:09:42;4.55;;;1.45;;
52158;SDS011;38145;53.182;6.284;2022-08-01T12:12:09;6.03;;;1.30;;
52158;SDS011;38145;53.182;6.284;2022-08-01T12:14:37;9.63;;;1.50;;
52158;SDS011;38145;53.182;6.284;2022-08-01T12:17:04;10.30;;;1.73;;
52158;SDS011;38145;53.182;6.284;2022-08-01T12:19:31;8.30;;;1.60;;
52158;SDS011;38145;53.182;6.284;2022-08-01T12:22:05;5.25;;;1.02;;
52158;SDS011;38145;53.182;6.284;2022-08-01T12:24:34;4.95;;;1.30;;
52158;SDS011;38145;53.182;6.284;2022-08-01T12:27:00;6.72;;;1.60;;
52158;SDS011;38145;53.182;6.284;2022-08-01T12:29:33;7.93;;;1.90;;
52158;SDS011;38145;53.182;6.284;2022-08-01T12:32:00;7.72;;;1.50;;
52158;SDS011;38145;53.182;6.284;2022-08-01T12:34:27;6.95;;;1.65;;
52158;SDS011;38145;53.182;6.284;2022-08-01T12:36:56;6.88;;;2.00;;
52158;SDS011;38145;53.182;6.284;2022-08-01T12:39:29;6.80;;;1.45;;
52158;SDS011;38145;53.182;6.284;2022-08-01T12:41:57;5.18;;;1.23;;
52158;SDS011;38145;53.182;6.284;2022-08-01T12:44:24;10.75;;;1.20;;
52158;SDS011;38145;53.182;6.284;2022-08-01T12:46:52;7.28;;;1.48;;
52158;SDS011;38145;53.182;6.284;2022-08-01T12:49:19;5.25;;;1.40;;
52158;SDS011;38145;53.182;6.284;2022-08-01T12:51:45;7.35;;;1.48;;
52158;SDS011;38145;53.182;6.284;2022-08-01T12:54:12;8.20;;;1.88;;
52158;SDS011;38145;53.182;6.284;2022-08-01T12:56:39;8.10;;;1.20;;
52158;SDS011;38145;53.182;6.284;2022-08-01T12:59:22;9.18;;;1.17;;
52158;SDS011;38145;53.182;6.284;2022-08-01T13:01:52;4.32;;;1.10;;
52158;SDS011;38145;53.182;6.284;2022-08-01T13:06:47;4.15;;;0.98;;
52158;SDS011;38145;53.182;6.284;2022-08-01T13:09:14;7.45;;;1.50;;
52158;SDS011;38145;53.182;6.284;2022-08-01T13:11:41;7.68;;;1.38;;
52158;SDS011;38145;53.182;6.284;2022-08-01T13:14:08;7.68;;;1.38;;
52158;SDS011;38145;53.182;6.284;2022-08-01T13:16:45;9.80;;;1.25;;
52158;SDS011;38145;53.182;6.284;2022-08-01T13:19:12;7.82;;;1.40;;
52158;SDS011;38145;53.182;6.284;2022-08-01T13:21:39;5.78;;;1.52;;
52158;SDS011;38145;53.182;6.284;2022-08-01T13:24:22;4.68;;;0.95;;
52158;SDS011;38145;53.182;6.284;2022-08-01T13:26:51;5.25;;;1.20;;
52158;SDS011;38145;53.182;6.284;2022-08-01T13:29:22;7.10;;;1.25;;
52158;SDS011;38145;53.182;6.284;2022-08-01T13:31:56;7.03;;;1.50;;
52158;SDS011;38145;53.182;6.284;2022-08-01T13:34:30;3.83;;;0.95;;
52158;SDS011;38145;53.182;6.284;2022-08-01T13:36:58;6.35;;;1.77;;
52158;SDS011;38145;53.182;6.284;2022-08-01T13:39:28;3.47;;;1.27;;
52158;SDS011;38145;53.182;6.284;2022-08-01T13:42:12;6.13;;;0.90;;
52158;SDS011;38145;53.182;6.284;2022-08-01T13:44:41;5.65;;;1.30;;
52158;SDS011;38145;53.182;6.284;2022-08-01T13:47:10;6.78;;;1.17;;
52158;SDS011;38145;53.182;6.284;2022-08-01T13:49:37;7.10;;;1.80;;
52158;SDS011;38145;53.182;6.284;2022-08-01T13:52:03;6.00;;;1.38;;
52158;SDS011;38145;53.182;6.284;2022-08-01T13:54:31;4.32;;;1.00;;
52158;SDS011;38145;53.182;6.284;2022-08-01T13:56:58;5.65;;;1.70;;
52158;SDS011;38145;53.182;6.284;2022-08-01T13:59:25;6.30;;;0.93;;
52158;SDS011;38145;53.182;6.284;2022-08-01T14:01:51;9.05;;;1.65;;
52158;SDS011;38145;53.182;6.284;2022-08-01T14:04:17;5.00;;;1.30;;
52158;SDS011;38145;53.182;6.284;2022-08-01T14:06:44;9.27;;;1.48;;
52158;SDS011;38145;53.182;6.284;2022-08-01T14:09:10;7.38;;;1.42;;
52158;SDS011;38145;53.182;6.284;2022-08-01T14:11:37;7.50;;;2.22;;
52158;SDS011;38145;53.182;6.284;2022-08-01T14:14:03;6.95;;;1.27;;
52158;SDS011;38145;53.182;6.284;2022-08-01T14:16:29;5.65;;;1.17;;
52158;SDS011;38145;53.182;6.284;2022-08-01T14:18:56;3.40;;;0.90;;
52158;SDS011;38145;53.182;6.284;2022-08-01T14:21:22;4.45;;;1.38;;
52158;SDS011;38145;53.182;6.284;2022-08-01T14:23:48;5.78;;;1.83;;
52158;SDS011;38145;53.182;6.284;2022-08-01T14:26:15;5.97;;;1.00;;
52158;SDS011;38145;53.182;6.284;2022-08-01T14:28:41;6.28;;;1.45;;
52158;SDS011;38145;53.182;6.284;2022-08-01T14:31:07;5.90;;;1.45;;
52158;SDS011;38145;53.182;6.284;2022-08-01T14:33:34;6.32;;;1.60;;
52158;SDS011;38145;53.182;6.284;2022-08-01T14:36:00;6.95;;;1.58;;
52158;SDS011;38145;53.182;6.284;2022-08-01T14:38:27;7.82;;;1.55;;
52158;SDS011;38145;53.182;6.284;2022-08-01T14:40:53;3.97;;;1.10;;
52158;SDS011;38145;53.182;6.284;2022-08-01T14:43:20;6.68;;;1.60;;
52158;SDS011;38145;53.182;6.284;2022-08-01T14:45:46;7.93;;;1.45;;
52158;SDS011;38145;53.182;6.284;2022-08-01T14:48:16;8.10;;;1.58;;
52158;SDS011;38145;53.182;6.284;2022-08-01T14:53:09;6.45;;;1.75;;
52158;SDS011;38145;53.182;6.284;2022-08-01T14:55:35;8.77;;;1.73;;
52158;SDS011;38145;53.182;6.284;2022-08-01T14:58:01;7.32;;;1.50;;
52158;SDS011;38145;53.182;6.284;2022-08-01T15:00:28;5.88;;;2.00;;
52158;SDS011;38145;53.182;6.284;2022-08-01T15:02:54;5.82;;;1.63;;
52158;SDS011;38145;53.182;6.284;2022-08-01T15:05:20;9.90;;;1.88;;
52158;SDS011;38145;53.182;6.284;2022-08-01T15:07:47;5.32;;;1.40;;
52158;SDS011;38145;53.182;6.284;2022-08-01T15:10:13;6.30;;;1.63;;
52158;SDS011;38145;53.182;6.284;2022-08-01T15:12:41;4.63;;;1.38;;
52158;SDS011;38145;53.182;6.284;2022-08-01T15:15:08;5.90;;;1.40;;
52158;SDS011;38145;53.182;6.284;2022-08-01T15:17:35;4.97;;;1.23;;
52158;SDS011;38145;53.182;6.284;2022-08-01T15:20:04;10.50;;;2.08;;
52158;SDS011;38145;53.182;6.284;2022-08-01T15:22:32;8.02;;;1.70;;